Terminal Aerodrome Forecast
Issued by NWS Newport/Morehead City, NC

Home | Current Version | Previous Version | Text Only | Print | Product List | Glossary Off
Versions: 1 2 3 4 5 6 7 8 9 10 11 12 13 14

549
FTUS42 KMHX 261739
TAFEWN
TAF
KEWN 261739Z 2618/2718 22012KT P6SM FEW050 SCT250
     FM270100 22006KT P6SM SCT050 SCT250=

USA.gov is the U.S. government's official web portal to all federal, state and local government web resources and services.